sensor_id;sensor_type;location;lat;lon;timestamp;pressure;altitude;pressure_sealevel;temperature;humidity
8069;BME280;4077;43.702;24.896;2022-10-31T00:00:55;99840.59;;;14.52;100.00
8069;BME280;4077;43.702;24.896;2022-10-31T00:03:21;99844.06;;;14.51;100.00
8069;BME280;4077;43.702;24.896;2022-10-31T00:05:48;99847.53;;;14.53;100.00
8069;BME280;4077;43.702;24.896;2022-10-31T00:08:14;99842.31;;;14.35;100.00
8069;BME280;4077;43.702;24.896;2022-10-31T00:10:41;99843.06;;;14.05;100.00
8069;BME280;4077;43.702;24.896;2022-10-31T00:13:07;99846.53;;;14.02;100.00
8069;BME280;4077;43.702;24.896;2022-10-31T00:15:34;99851.69;;;13.99;100.00
8069;BME280;4077;43.702;24.896;2022-10-31T00:18:00;99854.31;;;13.96;100.00
8069;BME280;4077;43.702;24.896;2022-10-31T00:20:25;99849.97;;;13.95;100.00
8069;BME280;4077;43.702;24.896;2022-10-31T00:22:51;99850.78;;;13.85;100.00
8069;BME280;4077;43.702;24.896;2022-10-31T00:25:16;99861.13;;;13.76;100.00
8069;BME280;4077;43.702;24.896;2022-10-31T00:27:42;99860.22;;;13.64;100.00
8069;BME280;4077;43.702;24.896;2022-10-31T00:30:07;99857.72;;;13.84;100.00
8069;BME280;4077;43.702;24.896;2022-10-31T00:32:33;99865.47;;;13.74;100.00
8069;BME280;4077;43.702;24.896;2022-10-31T00:34:58;99861.13;;;13.76;100.00
8069;BME280;4077;43.702;24.896;2022-10-31T00:37:24;99862.91;;;13.80;100.00
8069;BME280;4077;43.702;24.896;2022-10-31T00:39:49;99857.66;;;13.71;100.00
8069;BME280;4077;43.702;24.896;2022-10-31T00:42:15;99864.56;;;13.68;100.00
8069;BME280;4077;43.702;24.896;2022-10-31T00:44:41;99859.41;;;13.75;100.00
8069;BME280;4077;43.702;24.896;2022-10-31T00:47:06;99857.69;;;13.75;100.00
8069;BME280;4077;43.702;24.896;2022-10-31T00:49:31;99850.75;;;13.76;100.00
8069;BME280;4077;43.702;24.896;2022-10-31T00:51:57;99858.50;;;13.71;100.00
8069;BME280;4077;43.702;24.896;2022-10-31T00:54:22;99868.88;;;13.71;100.00
8069;BME280;4077;43.702;24.896;2022-10-31T00:56:48;99870.66;;;13.74;100.00
8069;BME280;4077;43.702;24.896;2022-10-31T00:59:13;99878.44;;;13.74;100.00
8069;BME280;4077;43.702;24.896;2022-10-31T01:01:38;99883.63;;;13.75;100.00
8069;BME280;4077;43.702;24.896;2022-10-31T01:04:04;99873.22;;;13.72;100.00
8069;BME280;4077;43.702;24.896;2022-10-31T01:06:29;99877.59;;;13.81;100.00
8069;BME280;4077;43.702;24.896;2022-10-31T01:08:55;99867.22;;;13.82;100.00
8069;BME280;4077;43.702;24.896;2022-10-31T01:11:22;99866.41;;;13.97;100.00
8069;BME280;4077;43.702;24.896;2022-10-31T01:13:50;99869.00;;;13.99;100.00
8069;BME280;4077;43.702;24.896;2022-10-31T01:16:18;99871.63;;;14.03;100.00
8069;BME280;4077;43.702;24.896;2022-10-31T01:18:43;99864.72;;;14.05;100.00
8069;BME280;4077;43.702;24.896;2022-10-31T01:21:12;99876.84;;;14.12;100.00
8069;BME280;4077;43.702;24.896;2022-10-31T01:23:38;99870.72;;;13.92;100.00
8069;BME280;4077;43.702;24.896;2022-10-31T01:26:08;99873.34;;;13.98;100.00
8069;BME280;4077;43.702;24.896;2022-10-31T01:28:36;99881.13;;;13.98;100.00
8069;BME280;4077;43.702;24.896;2022-10-31T01:31:04;99882.91;;;14.10;100.00
8069;BME280;4077;43.702;24.896;2022-10-31T01:33:30;99888.81;;;13.75;100.00
8069;BME280;4077;43.702;24.896;2022-10-31T01:35:56;99878.44;;;13.74;100.00
8069;BME280;4077;43.702;24.896;2022-10-31T01:38:21;99881.81;;;13.63;100.00
8069;BME280;4077;43.702;24.896;2022-10-31T01:40:48;99871.44;;;13.63;100.00
8069;BME280;4077;43.702;24.896;2022-10-31T01:43:14;99878.34;;;13.58;100.00
8069;BME280;4077;43.702;24.896;2022-10-31T01:45:41;99874.06;;;13.69;100.00
8069;BME280;4077;43.702;24.896;2022-10-31T01:48:19;99880.09;;;13.65;100.00
8069;BME280;4077;43.702;24.896;2022-10-31T01:50:48;99879.16;;;13.51;100.00
8069;BME280;4077;43.702;24.896;2022-10-31T01:53:16;99876.38;;;13.21;100.00
8069;BME280;4077;43.702;24.896;2022-10-31T01:55:44;99871.13;;;13.14;100.00
8069;BME280;4077;43.702;24.896;2022-10-31T01:58:18;99866.84;;;13.18;100.00
8069;BME280;4077;43.702;24.896;2022-10-31T02:00:46;99864.16;;;13.09;100.00
8069;BME280;4077;43.702;24.896;2022-10-31T02:03:13;99849.31;;;12.86;100.00
8069;BME280;4077;43.702;24.896;2022-10-31T02:05:39;99857.78;;;12.64;100.00
8069;BME280;4077;43.702;24.896;2022-10-31T02:08:17;99852.47;;;12.55;100.00
8069;BME280;4077;43.702;24.896;2022-10-31T02:10:44;99853.97;;;12.28;100.00
8069;BME280;4077;43.702;24.896;2022-10-31T02:13:10;99844.31;;;12.14;100.00
8069;BME280;4077;43.702;24.896;2022-10-31T02:15:39;99841.53;;;11.95;100.00
8069;BME280;4077;43.702;24.896;2022-10-31T02:18:05;99830.06;;;11.78;100.00
8069;BME280;4077;43.702;24.896;2022-10-31T02:33:53;99895.50;;;12.41;100.00
8069;BME280;4077;43.702;24.896;2022-10-31T02:36:34;99892.03;;;12.37;100.00
8069;BME280;4077;43.702;24.896;2022-10-31T02:42:10;99899.78;;;12.37;100.00
8069;BME280;4077;43.702;24.896;2022-10-31T02:45:20;99908.38;;;12.33;100.00
8069;BME280;4077;43.702;24.896;2022-10-31T02:47:49;99912.44;;;12.11;100.00
8069;BME280;4077;43.702;24.896;2022-10-31T02:50:22;99914.94;;;12.03;100.00
8069;BME280;4077;43.702;24.896;2022-10-31T02:52:51;99912.09;;;11.85;100.00
8069;BME280;4077;43.702;24.896;2022-10-31T03:00:23;99922.31;;;11.79;100.00
8069;BME280;4077;43.702;24.896;2022-10-31T03:03:19;99908.03;;;12.04;100.00
8069;BME280;4077;43.702;24.896;2022-10-31T03:08:34;99911.69;;;11.58;100.00
8069;BME280;4077;43.702;24.896;2022-10-31T03:11:05;99910.06;;;11.64;100.00
8069;BME280;4077;43.702;24.896;2022-10-31T03:13:52;99907.50;;;11.66;100.00
8069;BME280;4077;43.702;24.896;2022-10-31T03:19:03;99918.34;;;11.40;100.00
8069;BME280;4077;43.702;24.896;2022-10-31T03:21:41;99925.56;;;11.63;100.00
8069;BME280;4077;43.702;24.896;2022-10-31T03:24:09;99922.09;;;11.61;100.00
8069;BME280;4077;43.702;24.896;2022-10-31T03:26:38;99918.41;;;11.45;100.00
8069;BME280;4077;43.702;24.896;2022-10-31T03:29:09;99925.44;;;11.54;100.00
8069;BME280;4077;43.702;24.896;2022-10-31T03:31:39;99919.28;;;11.45;100.00
8069;BME280;4077;43.702;24.896;2022-10-31T03:34:07;99908.59;;;11.22;100.00
8069;BME280;4077;43.702;24.896;2022-10-31T03:36:37;99918.19;;;11.30;100.00
8069;BME280;4077;43.702;24.896;2022-10-31T03:39:06;99922.44;;;11.26;100.00
8069;BME280;4077;43.702;24.896;2022-10-31T03:41:40;99921.63;;;11.32;100.00
8069;BME280;4077;43.702;24.896;2022-10-31T03:44:09;99919.91;;;11.29;100.00
8069;BME280;4077;43.702;24.896;2022-10-31T03:46:38;99925.72;;;11.16;100.00
8069;BME280;4077;43.702;24.896;2022-10-31T03:49:03;99919.81;;;11.24;100.00
8069;BME280;4077;43.702;24.896;2022-10-31T03:51:40;99924.38;;;11.39;100.00
8069;BME280;4077;43.702;24.896;2022-10-31T03:54:24;99930.44;;;11.41;100.00
8069;BME280;4077;43.702;24.896;2022-10-31T03:57:05;99926.09;;;11.40;100.00
8069;BME280;4077;43.702;24.896;2022-10-31T03:59:40;99930.34;;;11.35;100.00
8069;BME280;4077;43.702;24.896;2022-10-31T04:02:11;99930.84;;;11.13;100.00
8069;BME280;4077;43.702;24.896;2022-10-31T04:04:38;99937.66;;;11.08;100.00
8069;BME280;4077;43.702;24.896;2022-10-31T04:07:06;99942.16;;;11.21;100.00
8069;BME280;4077;43.702;24.896;2022-10-31T04:09:35;99933.31;;;11.05;100.00
8069;BME280;4077;43.702;24.896;2022-10-31T04:12:03;99935.69;;;10.93;100.00
8069;BME280;4077;43.702;24.896;2022-10-31T04:14:32;99934.63;;;10.83;100.00
8069;BME280;4077;43.702;24.896;2022-10-31T04:16:58;99924.88;;;10.67;100.00
8069;BME280;4077;43.702;24.896;2022-10-31T04:19:24;99927.47;;;10.67;100.00
8069;BME280;4077;43.702;24.896;2022-10-31T04:21:49;99925.75;;;10.67;100.00
8069;BME280;4077;43.702;24.896;2022-10-31T04:24:15;99924.88;;;10.67;100.00
8069;BME280;4077;43.702;24.896;2022-10-31T04:26:40;99933.72;;;10.80;100.00
8069;BME280;4077;43.702;24.896;2022-10-31T04:29:05;99936.28;;;10.78;100.00
8069;BME280;4077;43.702;24.896;2022-10-31T04:31:31;99931.16;;;10.81;100.00
8069;BME280;4077;43.702;24.896;2022-10-31T04:33:56;99945.06;;;10.89;100.00
8069;BME280;4077;43.702;24.896;2022-10-31T04:36:22;99955.38;;;10.86;100.00
8069;BME280;4077;43.702;24.896;2022-10-31T04:38:47;99953.75;;;10.93;100.00
8069;BME280;4077;43.702;24.896;2022-10-31T04:41:12;99961.66;;;11.04;100.00
8069;BME280;4077;43.702;24.896;2022-10-31T04:43:38;99954.72;;;11.00;100.00
8069;BME280;4077;43.702;24.896;2022-10-31T04:46:03;99952.94;;;10.97;100.00
8069;BME280;4077;43.702;24.896;2022-10-31T04:48:29;99950.47;;;11.03;100.00
8069;BME280;4077;43.702;24.896;2022-10-31T04:50:59;99951.41;;;11.07;100.00
8069;BME280;4077;43.702;24.896;2022-10-31T04:53:25;99953.69;;;10.90;100.00
8069;BME280;4077;43.702;24.896;2022-10-31T04:55:50;99959.41;;;10.72;100.00
8069;BME280;4077;43.702;24.896;2022-10-31T04:58:16;99963.38;;;10.55;100.00
8069;BME280;4077;43.702;24.896;2022-10-31T05:00:41;99945.97;;;10.43;100.00
8069;BME280;4077;43.702;24.896;2022-10-31T05:03:07;99956.06;;;10.32;100.00
8069;BME280;4077;43.702;24.896;2022-10-31T05:05:32;99956.09;;;10.34;100.00
8069;BME280;4077;43.702;24.896;2022-10-31T05:07:58;99959.63;;;10.37;100.00
8069;BME280;4077;43.702;24.896;2022-10-31T05:10:26;99964.09;;;10.48;100.00
8069;BME280;4077;43.702;24.896;2022-10-31T05:12:57;99960.75;;;10.52;100.00
8069;BME280;4077;43.702;24.896;2022-10-31T05:15:24;99967.69;;;10.56;100.00
8069;BME280;4077;43.702;24.896;2022-10-31T05:17:50;99973.56;;;10.49;100.00
8069;BME280;4077;43.702;24.896;2022-10-31T05:20:18;99977.97;;;10.53;100.00
8069;BME280;4077;43.702;24.896;2022-10-31T05:22:46;99969.94;;;10.37;100.00
8069;BME280;4077;43.702;24.896;2022-10-31T05:25:12;99980.25;;;10.37;100.00
8069;BME280;4077;43.702;24.896;2022-10-31T05:27:41;99981.16;;;10.39;100.00
8069;BME280;4077;43.702;24.896;2022-10-31T05:30:08;99985.31;;;10.33;100.00
8069;BME280;4077;43.702;24.896;2022-10-31T05:32:42;99995.88;;;10.44;100.00
8069;BME280;4077;43.702;24.896;2022-10-31T05:35:10;99997.53;;;10.41;100.00
8069;BME280;4077;43.702;24.896;2022-10-31T05:37:40;100003.81;;;10.56;100.00
8069;BME280;4077;43.702;24.896;2022-10-31T05:40:08;99995.47;;;10.67;100.00
8069;BME280;4077;43.702;24.896;2022-10-31T05:42:35;100006.50;;;10.59;100.00
8069;BME280;4077;43.702;24.896;2022-10-31T05:45:00;99989.03;;;10.47;100.00
8069;BME280;4077;43.702;24.896;2022-10-31T05:47:26;99993.38;;;10.50;100.00
8069;BME280;4077;43.702;24.896;2022-10-31T05:49:51;99995.19;;;10.54;100.00
8069;BME280;4077;43.702;24.896;2022-10-31T05:52:17;99999.84;;;10.72;100.00
8069;BME280;4077;43.702;24.896;2022-10-31T05:54:43;100005.16;;;10.79;100.00
8069;BME280;4077;43.702;24.896;2022-10-31T05:57:08;100009.50;;;10.82;100.00
8069;BME280;4077;43.702;24.896;2022-10-31T05:59:34;100007.78;;;10.82;100.00
8069;BME280;4077;43.702;24.896;2022-10-31T06:01:59;100009.88;;;11.02;100.00
8069;BME280;4077;43.702;24.896;2022-10-31T06:04:25;99999.72;;;11.12;100.00
8069;BME280;4077;43.702;24.896;2022-10-31T06:06:50;100008.69;;;11.33;100.00
8069;BME280;4077;43.702;24.896;2022-10-31T06:09:16;99996.78;;;11.42;100.00
8069;BME280;4077;43.702;24.896;2022-10-31T06:11:41;100000.00;;;11.29;100.00
8069;BME280;4077;43.702;24.896;2022-10-31T06:14:07;99996.31;;;11.15;100.00
8069;BME280;4077;43.702;24.896;2022-10-31T06:16:32;100003.19;;;11.13;100.00
8069;BME280;4077;43.702;24.896;2022-10-31T06:18:58;100010.13;;;11.17;100.00
8069;BME280;4077;43.702;24.896;2022-10-31T06:21:23;100005.13;;;11.26;100.00
8069;BME280;4077;43.702;24.896;2022-10-31T06:23:48;100013.25;;;11.47;100.00
8069;BME280;4077;43.702;24.896;2022-10-31T06:26:14;100016.25;;;11.75;100.00
8069;BME280;4077;43.702;24.896;2022-10-31T06:28:39;100027.03;;;12.02;100.00
8069;BME280;4077;43.702;24.896;2022-10-31T06:31:05;100021.31;;;12.25;100.00
8069;BME280;4077;43.702;24.896;2022-10-31T06:33:30;100026.66;;;12.37;100.00
8069;BME280;4077;43.702;24.896;2022-10-31T06:35:56;100026.84;;;12.52;100.00
8069;BME280;4077;43.702;24.896;2022-10-31T06:38:21;100034.81;;;12.71;100.00
8069;BME280;4077;43.702;24.896;2022-10-31T06:40:47;100042.75;;;12.86;100.00
8069;BME280;4077;43.702;24.896;2022-10-31T06:43:12;100046.31;;;12.94;100.00
8069;BME280;4077;43.702;24.896;2022-10-31T06:45:40;100044.97;;;13.30;100.00
8069;BME280;4077;43.702;24.896;2022-10-31T06:48:07;100056.84;;;14.13;100.00
8069;BME280;4077;43.702;24.896;2022-10-31T06:50:33;100064.09;;;14.70;100.00
8069;BME280;4077;43.702;24.896;2022-10-31T06:52:58;100070.38;;;15.58;100.00
8069;BME280;4077;43.702;24.896;2022-10-31T06:55:25;100082.38;;;16.60;100.00
8069;BME280;4077;43.702;24.896;2022-10-31T06:57:59;100082.81;;;17.50;97.69
8069;BME280;4077;43.702;24.896;2022-10-31T07:00:28;100084.38;;;17.76;90.79
8069;BME280;4077;43.702;24.896;2022-10-31T07:02:56;100095.69;;;17.78;91.22
8069;BME280;4077;43.702;24.896;2022-10-31T07:05:22;100095.84;;;17.49;92.33
8069;BME280;4077;43.702;24.896;2022-10-31T07:08:04;100087.16;;;17.50;94.26
8069;BME280;4077;43.702;24.896;2022-10-31T07:10:32;100088.91;;;17.48;94.26
8069;BME280;4077;43.702;24.896;2022-10-31T07:13:01;100076.66;;;17.58;93.09
8069;BME280;4077;43.702;24.896;2022-10-31T07:15:29;100073.88;;;17.85;92.02
8069;BME280;4077;43.702;24.896;2022-10-31T07:17:59;100080.56;;;18.14;88.98
8069;BME280;4077;43.702;24.896;2022-10-31T07:20:26;100078.09;;;17.98;88.32
8069;BME280;4077;43.702;24.896;2022-10-31T07:22:52;100073.03;;;17.77;87.96
8069;BME280;4077;43.702;24.896;2022-10-31T07:25:17;100082.69;;;17.66;86.22
8069;BME280;4077;43.702;24.896;2022-10-31T07:27:43;100081.16;;;17.34;87.28
8069;BME280;4077;43.702;24.896;2022-10-31T07:30:11;100073.94;;;17.70;87.97
8069;BME280;4077;43.702;24.896;2022-10-31T07:35:06;100078.69;;;18.25;84.28
8069;BME280;4077;43.702;24.896;2022-10-31T07:37:31;100076.81;;;18.39;83.24
8069;BME280;4077;43.702;24.896;2022-10-31T07:39:57;100083.59;;;18.55;80.46
8069;BME280;4077;43.702;24.896;2022-10-31T07:42:22;100087.59;;;18.85;81.22
8069;BME280;4077;43.702;24.896;2022-10-31T07:44:48;100087.84;;;19.32;76.98
8069;BME280;4077;43.702;24.896;2022-10-31T07:47:13;100091.31;;;19.35;76.38
8069;BME280;4077;43.702;24.896;2022-10-31T07:49:39;100105.13;;;19.45;75.33
8069;BME280;4077;43.702;24.896;2022-10-31T07:52:04;100090.19;;;18.90;78.16
8069;BME280;4077;43.702;24.896;2022-10-31T07:54:29;100078.09;;;18.80;78.15
8069;BME280;4077;43.702;24.896;2022-10-31T07:56:55;100083.44;;;18.71;78.68
8069;BME280;4077;43.702;24.896;2022-10-31T07:59:20;100086.75;;;18.85;77.92
8069;BME280;4077;43.702;24.896;2022-10-31T08:01:46;100089.97;;;19.05;74.13
8069;BME280;4077;43.702;24.896;2022-10-31T08:04:11;100093.25;;;19.20;72.73
8069;BME280;4077;43.702;24.896;2022-10-31T08:06:36;100073.84;;;19.36;71.21
8069;BME280;4077;43.702;24.896;2022-10-31T08:09:02;100095.28;;;19.61;70.25
8069;BME280;4077;43.702;24.896;2022-10-31T08:11:27;100100.44;;;19.67;70.99
8069;BME280;4077;43.702;24.896;2022-10-31T08:13:53;100108.25;;;19.70;70.89
8069;BME280;4077;43.702;24.896;2022-10-31T08:16:18;100108.31;;;19.65;70.44
8069;BME280;4077;43.702;24.896;2022-10-31T08:18:44;100110.16;;;19.60;71.02
8069;BME280;4077;43.702;24.896;2022-10-31T08:21:16;100113.69;;;19.56;71.25
8069;BME280;4077;43.702;24.896;2022-10-31T08:23:42;100109.13;;;19.71;71.99
8069;BME280;4077;43.702;24.896;2022-10-31T08:26:07;100109.28;;;20.12;70.62
8069;BME280;4077;43.702;24.896;2022-10-31T08:28:33;100104.66;;;20.27;68.60
8069;BME280;4077;43.702;24.896;2022-10-31T08:30:58;100112.88;;;20.56;67.55
8069;BME280;4077;43.702;24.896;2022-10-31T08:33:24;100113.06;;;20.44;67.90
8069;BME280;4077;43.702;24.896;2022-10-31T08:35:49;100111.91;;;20.12;68.42
8069;BME280;4077;43.702;24.896;2022-10-31T08:38:15;100104.69;;;19.74;68.98
8069;BME280;4077;43.702;24.896;2022-10-31T08:40:41;100099.53;;;19.70;70.77
8069;BME280;4077;43.702;24.896;2022-10-31T08:43:14;100108.03;;;19.84;70.67
8069;BME280;4077;43.702;24.896;2022-10-31T08:45:40;100108.00;;;19.27;70.20
8069;BME280;4077;43.702;24.896;2022-10-31T08:48:09;100108.88;;;19.26;71.34
8069;BME280;4077;43.702;24.896;2022-10-31T08:50:36;100108.72;;;19.38;71.06
8069;BME280;4077;43.702;24.896;2022-10-31T08:53:06;100112.00;;;19.52;69.86
8069;BME280;4077;43.702;24.896;2022-10-31T08:55:36;100104.06;;;19.57;69.65
8069;BME280;4077;43.702;24.896;2022-10-31T08:58:04;100104.28;;;19.41;69.10
8069;BME280;4077;43.702;24.896;2022-10-31T09:00:31;100103.38;;;19.44;69.01
8069;BME280;4077;43.702;24.896;2022-10-31T09:02:57;100111.94;;;19.58;68.38
8069;BME280;4077;43.702;24.896;2022-10-31T09:05:23;100104.63;;;19.79;67.72
8069;BME280;4077;43.702;24.896;2022-10-31T09:07:49;100100.59;;;19.58;67.51
8069;BME280;4077;43.702;24.896;2022-10-31T09:10:14;100118.00;;;20.14;66.72
8069;BME280;4077;43.702;24.896;2022-10-31T09:12:40;100116.78;;;20.79;64.23
8069;BME280;4077;43.702;24.896;2022-10-31T09:15:07;100109.94;;;20.73;63.21
8069;BME280;4077;43.702;24.896;2022-10-31T09:17:32;100108.09;;;20.30;64.06
8069;BME280;4077;43.702;24.896;2022-10-31T09:19:58;100113.13;;;19.93;64.97
8069;BME280;4077;43.702;24.896;2022-10-31T09:22:23;100098.19;;;19.97;65.24
8069;BME280;4077;43.702;24.896;2022-10-31T09:24:49;100095.66;;;19.92;65.01
8069;BME280;4077;43.702;24.896;2022-10-31T09:27:14;100097.31;;;19.96;65.25
8069;BME280;4077;43.702;24.896;2022-10-31T09:29:40;100101.03;;;19.84;65.61
8069;BME280;4077;43.702;24.896;2022-10-31T09:32:05;100092.72;;;19.56;66.82
8069;BME280;4077;43.702;24.896;2022-10-31T09:34:30;100097.19;;;19.50;67.34
8069;BME280;4077;43.702;24.896;2022-10-31T09:36:56;100096.16;;;19.61;66.66
8069;BME280;4077;43.702;24.896;2022-10-31T09:39:21;100090.47;;;19.89;66.25
8069;BME280;4077;43.702;24.896;2022-10-31T09:44:38;100086.84;;;19.96;64.43
8069;BME280;4077;43.702;24.896;2022-10-31T09:52:35;100093.97;;;20.37;64.91
8069;BME280;4077;43.702;24.896;2022-10-31T09:55:17;100075.50;;;20.45;63.67
8069;BME280;4077;43.702;24.896;2022-10-31T09:57:44;100088.09;;;20.71;63.09
8069;BME280;4077;43.702;24.896;2022-10-31T10:00:19;100098.06;;;20.97;62.43
8069;BME280;4077;43.702;24.896;2022-10-31T10:08:32;100089.31;;;20.96;62.33
8069;BME280;4077;43.702;24.896;2022-10-31T10:21:59;100074.50;;;21.71;59.90
8069;BME280;4077;43.702;24.896;2022-10-31T15:07:10;99965.72;;;20.27;68.38
8069;BME280;4077;43.702;24.896;2022-10-31T15:09:37;99969.72;;;20.01;68.55
8069;BME280;4077;43.702;24.896;2022-10-31T15:12:27;99964.28;;;20.10;68.37
8069;BME280;4077;43.702;24.896;2022-10-31T15:14:53;99976.69;;;19.53;70.26
8069;BME280;4077;43.702;24.896;2022-10-31T15:17:19;99970.78;;;19.40;70.85
8069;BME280;4077;43.702;24.896;2022-10-31T15:19:45;99966.06;;;19.09;71.50
8069;BME280;4077;43.702;24.896;2022-10-31T15:22:15;99968.03;;;18.92;72.62
8069;BME280;4077;43.702;24.896;2022-10-31T15:24:42;99970.09;;;18.72;73.32
8069;BME280;4077;43.702;24.896;2022-10-31T15:27:17;99966.63;;;18.70;73.84
8069;BME280;4077;43.702;24.896;2022-10-31T15:29:54;99973.72;;;18.58;73.94
8069;BME280;4077;43.702;24.896;2022-10-31T15:32:25;99976.53;;;18.46;74.85
8069;BME280;4077;43.702;24.896;2022-10-31T15:34:52;99974.06;;;18.34;75.23
8069;BME280;4077;43.702;24.896;2022-10-31T15:37:20;99971.53;;;18.26;75.74
8069;BME280;4077;43.702;24.896;2022-10-31T15:39:47;99964.81;;;18.06;75.70
8069;BME280;4077;43.702;24.896;2022-10-31T15:42:32;99973.59;;;18.00;76.13
8069;BME280;4077;43.702;24.896;2022-10-31T15:45:17;99968.41;;;17.95;76.60
8069;BME280;4077;43.702;24.896;2022-10-31T15:47:56;99978.13;;;17.81;77.03
8069;BME280;4077;43.702;24.896;2022-10-31T15:50:32;99980.09;;;17.55;77.34
